sensor_id;sensor_type;location;lat;lon;timestamp;temperature;humidity
42683;DHT22;28293;50.930;3.464;2023-07-31T00:00:25;17.70;80.90
42683;DHT22;28293;50.930;3.464;2023-07-31T00:02:52;17.80;80.80
42683;DHT22;28293;50.930;3.464;2023-07-31T00:05:18;17.80;80.90
42683;DHT22;28293;50.930;3.464;2023-07-31T00:07:43;17.70;81.10
42683;DHT22;28293;50.930;3.464;2023-07-31T00:10:09;17.70;81.10
42683;DHT22;28293;50.930;3.464;2023-07-31T00:12:35;17.80;80.90
42683;DHT22;28293;50.930;3.464;2023-07-31T00:15:01;17.80;80.90
42683;DHT22;28293;50.930;3.464;2023-07-31T00:17:28;17.80;80.50
42683;DHT22;28293;50.930;3.464;2023-07-31T00:19:53;17.80;80.50
42683;DHT22;28293;50.930;3.464;2023-07-31T00:22:19;17.80;80.70
42683;DHT22;28293;50.930;3.464;2023-07-31T00:24:45;17.80;80.70
42683;DHT22;28293;50.930;3.464;2023-07-31T00:27:10;17.80;80.70
42683;DHT22;28293;50.930;3.464;2023-07-31T00:29:36;17.80;80.90
42683;DHT22;28293;50.930;3.464;2023-07-31T00:32:02;17.80;80.90
42683;DHT22;28293;50.930;3.464;2023-07-31T00:34:27;17.80;81.10
42683;DHT22;28293;50.930;3.464;2023-07-31T00:36:53;17.80;81.10
42683;DHT22;28293;50.930;3.464;2023-07-31T00:39:19;17.70;81.10
42683;DHT22;28293;50.930;3.464;2023-07-31T00:41:44;17.70;81.30
42683;DHT22;28293;50.930;3.464;2023-07-31T00:44:10;17.70;81.40
42683;DHT22;28293;50.930;3.464;2023-07-31T00:46:36;17.70;81.30
42683;DHT22;28293;50.930;3.464;2023-07-31T00:49:02;17.80;81.20
42683;DHT22;28293;50.930;3.464;2023-07-31T00:51:29;17.80;81.10
42683;DHT22;28293;50.930;3.464;2023-07-31T00:53:55;17.80;80.80
42683;DHT22;28293;50.930;3.464;2023-07-31T00:56:21;17.80;81.00
42683;DHT22;28293;50.930;3.464;2023-07-31T00:58:47;17.80;81.00
42683;DHT22;28293;50.930;3.464;2023-07-31T01:01:13;17.80;81.00
42683;DHT22;28293;50.930;3.464;2023-07-31T01:03:39;17.80;81.10
42683;DHT22;28293;50.930;3.464;2023-07-31T01:06:18;17.80;81.30
42683;DHT22;28293;50.930;3.464;2023-07-31T01:11:43;17.90;80.90
42683;DHT22;28293;50.930;3.464;2023-07-31T01:14:10;17.90;80.90
42683;DHT22;28293;50.930;3.464;2023-07-31T01:16:36;17.90;81.00
42683;DHT22;28293;50.930;3.464;2023-07-31T01:19:02;17.90;81.00
42683;DHT22;28293;50.930;3.464;2023-07-31T01:21:47;17.80;81.00
42683;DHT22;28293;50.930;3.464;2023-07-31T01:24:54;17.90;81.00
42683;DHT22;28293;50.930;3.464;2023-07-31T01:27:33;17.90;81.10
42683;DHT22;28293;50.930;3.464;2023-07-31T01:30:09;17.80;81.30
42683;DHT22;28293;50.930;3.464;2023-07-31T01:32:42;17.90;81.30
42683;DHT22;28293;50.930;3.464;2023-07-31T01:35:08;17.90;81.40
42683;DHT22;28293;50.930;3.464;2023-07-31T01:37:34;17.90;81.40
42683;DHT22;28293;50.930;3.464;2023-07-31T01:40:00;17.90;81.50
42683;DHT22;28293;50.930;3.464;2023-07-31T01:42:25;17.90;81.60
42683;DHT22;28293;50.930;3.464;2023-07-31T01:44:51;17.90;81.40
42683;DHT22;28293;50.930;3.464;2023-07-31T01:47:17;18.00;81.40
42683;DHT22;28293;50.930;3.464;2023-07-31T01:49:42;18.00;81.50
42683;DHT22;28293;50.930;3.464;2023-07-31T01:52:08;18.00;81.60
42683;DHT22;28293;50.930;3.464;2023-07-31T01:54:34;18.00;81.70
42683;DHT22;28293;50.930;3.464;2023-07-31T01:56:59;18.00;81.80
42683;DHT22;28293;50.930;3.464;2023-07-31T01:59:25;18.00;81.70
42683;DHT22;28293;50.930;3.464;2023-07-31T02:01:51;18.00;81.80
42683;DHT22;28293;50.930;3.464;2023-07-31T02:04:16;17.90;81.90
42683;DHT22;28293;50.930;3.464;2023-07-31T02:06:43;17.90;82.00
42683;DHT22;28293;50.930;3.464;2023-07-31T02:09:09;17.90;82.20
42683;DHT22;28293;50.930;3.464;2023-07-31T02:11:34;17.90;82.50
42683;DHT22;28293;50.930;3.464;2023-07-31T02:14:00;17.90;82.60
42683;DHT22;28293;50.930;3.464;2023-07-31T02:16:26;17.90;82.70
42683;DHT22;28293;50.930;3.464;2023-07-31T02:18:52;17.90;82.80
42683;DHT22;28293;50.930;3.464;2023-07-31T02:21:26;18.00;83.00
42683;DHT22;28293;50.930;3.464;2023-07-31T02:23:52;18.00;83.10
42683;DHT22;28293;50.930;3.464;2023-07-31T02:26:17;18.00;83.20
42683;DHT22;28293;50.930;3.464;2023-07-31T02:28:43;18.00;83.50
42683;DHT22;28293;50.930;3.464;2023-07-31T02:31:09;18.00;83.70
42683;DHT22;28293;50.930;3.464;2023-07-31T02:33:35;18.00;84.00
42683;DHT22;28293;50.930;3.464;2023-07-31T02:36:00;18.00;84.50
42683;DHT22;28293;50.930;3.464;2023-07-31T02:38:26;18.10;85.00
42683;DHT22;28293;50.930;3.464;2023-07-31T02:40:52;18.00;85.60
42683;DHT22;28293;50.930;3.464;2023-07-31T02:43:17;18.00;85.70
42683;DHT22;28293;50.930;3.464;2023-07-31T02:45:43;17.90;86.10
42683;DHT22;28293;50.930;3.464;2023-07-31T02:48:09;17.90;86.30
42683;DHT22;28293;50.930;3.464;2023-07-31T02:50:35;17.90;86.40
42683;DHT22;28293;50.930;3.464;2023-07-31T02:53:00;17.80;86.60
42683;DHT22;28293;50.930;3.464;2023-07-31T02:55:26;17.90;86.70
42683;DHT22;28293;50.930;3.464;2023-07-31T02:57:52;17.80;86.80
42683;DHT22;28293;50.930;3.464;2023-07-31T03:00:18;17.80;87.00
42683;DHT22;28293;50.930;3.464;2023-07-31T03:02:44;17.80;87.20
42683;DHT22;28293;50.930;3.464;2023-07-31T03:05:09;17.80;87.30
42683;DHT22;28293;50.930;3.464;2023-07-31T03:07:35;17.80;87.40
42683;DHT22;28293;50.930;3.464;2023-07-31T03:10:01;17.80;87.70
42683;DHT22;28293;50.930;3.464;2023-07-31T03:12:27;17.80;87.90
42683;DHT22;28293;50.930;3.464;2023-07-31T03:14:52;17.80;88.20
42683;DHT22;28293;50.930;3.464;2023-07-31T03:17:18;17.70;88.50
42683;DHT22;28293;50.930;3.464;2023-07-31T03:19:44;17.70;88.80
42683;DHT22;28293;50.930;3.464;2023-07-31T03:22:09;17.60;88.90
42683;DHT22;28293;50.930;3.464;2023-07-31T03:24:35;17.60;89.10
42683;DHT22;28293;50.930;3.464;2023-07-31T03:27:01;17.60;89.40
42683;DHT22;28293;50.930;3.464;2023-07-31T03:29:26;17.60;89.60
42683;DHT22;28293;50.930;3.464;2023-07-31T03:31:52;17.60;89.80
42683;DHT22;28293;50.930;3.464;2023-07-31T03:34:18;17.50;89.80
42683;DHT22;28293;50.930;3.464;2023-07-31T03:36:43;17.50;89.90
42683;DHT22;28293;50.930;3.464;2023-07-31T03:39:09;17.50;90.00
42683;DHT22;28293;50.930;3.464;2023-07-31T03:41:35;17.50;90.00
42683;DHT22;28293;50.930;3.464;2023-07-31T03:44:01;17.50;90.10
42683;DHT22;28293;50.930;3.464;2023-07-31T03:46:26;17.50;90.20
42683;DHT22;28293;50.930;3.464;2023-07-31T03:48:52;17.40;90.30
42683;DHT22;28293;50.930;3.464;2023-07-31T03:51:18;17.40;90.40
42683;DHT22;28293;50.930;3.464;2023-07-31T03:53:44;17.40;90.50
42683;DHT22;28293;50.930;3.464;2023-07-31T03:56:10;17.40;90.50
42683;DHT22;28293;50.930;3.464;2023-07-31T03:58:36;17.40;90.50
42683;DHT22;28293;50.930;3.464;2023-07-31T04:01:03;17.40;90.50
42683;DHT22;28293;50.930;3.464;2023-07-31T04:03:29;17.40;90.50
42683;DHT22;28293;50.930;3.464;2023-07-31T04:05:55;17.40;90.50
42683;DHT22;28293;50.930;3.464;2023-07-31T04:08:24;17.40;90.50
42683;DHT22;28293;50.930;3.464;2023-07-31T04:10:50;17.40;90.50
42683;DHT22;28293;50.930;3.464;2023-07-31T04:13:16;17.40;90.50
42683;DHT22;28293;50.930;3.464;2023-07-31T04:15:41;17.40;90.30
42683;DHT22;28293;50.930;3.464;2023-07-31T04:18:07;17.40;90.10
42683;DHT22;28293;50.930;3.464;2023-07-31T04:20:33;17.40;90.10
42683;DHT22;28293;50.930;3.464;2023-07-31T04:22:59;17.40;90.20
42683;DHT22;28293;50.930;3.464;2023-07-31T04:25:25;17.40;90.10
42683;DHT22;28293;50.930;3.464;2023-07-31T04:27:50;17.30;90.20
42683;DHT22;28293;50.930;3.464;2023-07-31T04:30:16;17.40;90.10
42683;DHT22;28293;50.930;3.464;2023-07-31T04:32:42;17.40;90.10
42683;DHT22;28293;50.930;3.464;2023-07-31T04:35:08;17.40;90.30
42683;DHT22;28293;50.930;3.464;2023-07-31T04:37:33;17.30;90.40
42683;DHT22;28293;50.930;3.464;2023-07-31T04:39:59;17.30;90.30
42683;DHT22;28293;50.930;3.464;2023-07-31T04:42:25;17.40;90.40
42683;DHT22;28293;50.930;3.464;2023-07-31T04:44:50;17.40;90.40
42683;DHT22;28293;50.930;3.464;2023-07-31T04:47:18;17.40;90.60
42683;DHT22;28293;50.930;3.464;2023-07-31T04:49:44;17.40;90.60
42683;DHT22;28293;50.930;3.464;2023-07-31T04:52:09;17.40;90.70
42683;DHT22;28293;50.930;3.464;2023-07-31T04:54:35;17.40;90.80
42683;DHT22;28293;50.930;3.464;2023-07-31T04:57:01;17.40;90.70
42683;DHT22;28293;50.930;3.464;2023-07-31T04:59:26;17.40;90.80
42683;DHT22;28293;50.930;3.464;2023-07-31T05:01:52;17.40;90.80
42683;DHT22;28293;50.930;3.464;2023-07-31T05:04:17;17.40;90.60
42683;DHT22;28293;50.930;3.464;2023-07-31T05:06:43;17.40;90.60
42683;DHT22;28293;50.930;3.464;2023-07-31T05:09:09;17.50;90.50
42683;DHT22;28293;50.930;3.464;2023-07-31T05:11:35;17.50;90.30
42683;DHT22;28293;50.930;3.464;2023-07-31T05:14:01;17.50;90.30
42683;DHT22;28293;50.930;3.464;2023-07-31T05:16:27;17.40;90.10
42683;DHT22;28293;50.930;3.464;2023-07-31T05:18:52;17.50;90.20
42683;DHT22;28293;50.930;3.464;2023-07-31T05:21:18;17.50;90.00
42683;DHT22;28293;50.930;3.464;2023-07-31T05:23:44;17.50;89.90
42683;DHT22;28293;50.930;3.464;2023-07-31T05:26:09;17.50;89.80
42683;DHT22;28293;50.930;3.464;2023-07-31T05:28:36;17.50;89.70
42683;DHT22;28293;50.930;3.464;2023-07-31T05:31:03;17.60;89.60
42683;DHT22;28293;50.930;3.464;2023-07-31T05:33:28;17.60;89.40
42683;DHT22;28293;50.930;3.464;2023-07-31T05:35:54;17.60;89.10
42683;DHT22;28293;50.930;3.464;2023-07-31T05:38:20;17.60;88.90
42683;DHT22;28293;50.930;3.464;2023-07-31T05:40:47;17.60;88.90
42683;DHT22;28293;50.930;3.464;2023-07-31T05:43:13;17.60;88.80
42683;DHT22;28293;50.930;3.464;2023-07-31T05:45:38;17.60;88.80
42683;DHT22;28293;50.930;3.464;2023-07-31T05:48:05;17.60;88.70
42683;DHT22;28293;50.930;3.464;2023-07-31T05:50:31;17.60;88.30
42683;DHT22;28293;50.930;3.464;2023-07-31T05:52:57;17.70;88.10
42683;DHT22;28293;50.930;3.464;2023-07-31T05:55:23;17.70;87.80
42683;DHT22;28293;50.930;3.464;2023-07-31T05:57:52;17.80;87.50
42683;DHT22;28293;50.930;3.464;2023-07-31T06:00:18;17.70;87.30
42683;DHT22;28293;50.930;3.464;2023-07-31T06:02:43;17.80;86.70
42683;DHT22;28293;50.930;3.464;2023-07-31T06:05:09;17.80;86.70
42683;DHT22;28293;50.930;3.464;2023-07-31T06:07:35;17.90;86.40
42683;DHT22;28293;50.930;3.464;2023-07-31T06:10:01;18.00;86.00
42683;DHT22;28293;50.930;3.464;2023-07-31T06:12:31;18.00;85.80
42683;DHT22;28293;50.930;3.464;2023-07-31T06:14:57;18.10;85.70
42683;DHT22;28293;50.930;3.464;2023-07-31T06:17:23;18.10;85.40
42683;DHT22;28293;50.930;3.464;2023-07-31T06:19:50;18.20;85.30
42683;DHT22;28293;50.930;3.464;2023-07-31T06:22:16;18.10;85.40
42683;DHT22;28293;50.930;3.464;2023-07-31T06:24:42;18.20;85.30
42683;DHT22;28293;50.930;3.464;2023-07-31T06:27:08;18.30;85.20
42683;DHT22;28293;50.930;3.464;2023-07-31T06:29:35;18.30;84.60
42683;DHT22;28293;50.930;3.464;2023-07-31T06:32:01;18.30;84.70
42683;DHT22;28293;50.930;3.464;2023-07-31T06:34:26;18.30;84.60
42683;DHT22;28293;50.930;3.464;2023-07-31T06:36:52;18.30;84.40
42683;DHT22;28293;50.930;3.464;2023-07-31T06:39:18;18.40;84.40
42683;DHT22;28293;50.930;3.464;2023-07-31T06:41:44;18.30;84.60
42683;DHT22;28293;50.930;3.464;2023-07-31T06:44:10;18.30;84.50
42683;DHT22;28293;50.930;3.464;2023-07-31T06:46:36;18.30;84.30
42683;DHT22;28293;50.930;3.464;2023-07-31T06:49:02;18.40;84.50
42683;DHT22;28293;50.930;3.464;2023-07-31T06:51:27;18.40;84.30
42683;DHT22;28293;50.930;3.464;2023-07-31T06:53:53;18.40;84.10
42683;DHT22;28293;50.930;3.464;2023-07-31T06:56:20;18.50;83.80
42683;DHT22;28293;50.930;3.464;2023-07-31T06:58:46;18.50;83.60
42683;DHT22;28293;50.930;3.464;2023-07-31T07:01:12;18.50;83.10
42683;DHT22;28293;50.930;3.464;2023-07-31T07:03:38;18.60;83.00
42683;DHT22;28293;50.930;3.464;2023-07-31T07:06:03;18.60;82.90
42683;DHT22;28293;50.930;3.464;2023-07-31T07:08:29;18.70;82.70
42683;DHT22;28293;50.930;3.464;2023-07-31T07:10:55;18.80;82.10
42683;DHT22;28293;50.930;3.464;2023-07-31T07:13:21;18.80;82.20
42683;DHT22;28293;50.930;3.464;2023-07-31T07:15:50;19.00;81.80
42683;DHT22;28293;50.930;3.464;2023-07-31T07:18:16;19.10;81.10
42683;DHT22;28293;50.930;3.464;2023-07-31T07:20:52;19.10;81.00
42683;DHT22;28293;50.930;3.464;2023-07-31T07:23:18;19.10;80.80
42683;DHT22;28293;50.930;3.464;2023-07-31T07:25:45;19.00;81.50
42683;DHT22;28293;50.930;3.464;2023-07-31T07:28:14;19.00;82.00
42683;DHT22;28293;50.930;3.464;2023-07-31T07:30:40;18.90;82.40
42683;DHT22;28293;50.930;3.464;2023-07-31T07:33:05;18.80;82.10
42683;DHT22;28293;50.930;3.464;2023-07-31T07:35:35;18.80;81.90
42683;DHT22;28293;50.930;3.464;2023-07-31T07:38:02;18.80;82.00
42683;DHT22;28293;50.930;3.464;2023-07-31T07:40:28;18.90;82.10
42683;DHT22;28293;50.930;3.464;2023-07-31T07:42:55;19.10;81.90
42683;DHT22;28293;50.930;3.464;2023-07-31T07:45:20;19.10;81.70
42683;DHT22;28293;50.930;3.464;2023-07-31T07:47:46;19.10;81.50
42683;DHT22;28293;50.930;3.464;2023-07-31T07:50:12;19.10;81.30
42683;DHT22;28293;50.930;3.464;2023-07-31T07:52:37;19.30;81.30
42683;DHT22;28293;50.930;3.464;2023-07-31T07:55:03;19.30;81.20
42683;DHT22;28293;50.930;3.464;2023-07-31T07:57:29;19.40;81.30
42683;DHT22;28293;50.930;3.464;2023-07-31T07:59:55;19.60;81.20
42683;DHT22;28293;50.930;3.464;2023-07-31T08:02:22;19.60;80.50
42683;DHT22;28293;50.930;3.464;2023-07-31T08:04:48;19.70;79.90
42683;DHT22;28293;50.930;3.464;2023-07-31T08:07:14;19.70;80.00
42683;DHT22;28293;50.930;3.464;2023-07-31T08:09:40;19.60;80.00
42683;DHT22;28293;50.930;3.464;2023-07-31T08:12:07;19.50;80.30
42683;DHT22;28293;50.930;3.464;2023-07-31T08:14:33;19.60;80.70
42683;DHT22;28293;50.930;3.464;2023-07-31T08:16:58;19.60;80.50
42683;DHT22;28293;50.930;3.464;2023-07-31T08:19:24;19.60;80.70
42683;DHT22;28293;50.930;3.464;2023-07-31T08:21:50;19.50;80.60
42683;DHT22;28293;50.930;3.464;2023-07-31T08:24:16;19.60;80.80
42683;DHT22;28293;50.930;3.464;2023-07-31T08:26:42;19.60;80.60
42683;DHT22;28293;50.930;3.464;2023-07-31T08:29:07;19.70;80.20
42683;DHT22;28293;50.930;3.464;2023-07-31T08:31:33;19.70;80.80
42683;DHT22;28293;50.930;3.464;2023-07-31T08:33:59;19.70;81.00
42683;DHT22;28293;50.930;3.464;2023-07-31T08:36:25;20.00;80.50
42683;DHT22;28293;50.930;3.464;2023-07-31T08:38:51;20.10;79.80
42683;DHT22;28293;50.930;3.464;2023-07-31T08:41:16;20.20;79.60
42683;DHT22;28293;50.930;3.464;2023-07-31T08:43:44;20.30;79.00
42683;DHT22;28293;50.930;3.464;2023-07-31T08:46:10;20.40;78.90
42683;DHT22;28293;50.930;3.464;2023-07-31T08:48:37;20.40;79.40
42683;DHT22;28293;50.930;3.464;2023-07-31T08:51:04;20.40;79.40
42683;DHT22;28293;50.930;3.464;2023-07-31T08:53:29;20.50;79.40
42683;DHT22;28293;50.930;3.464;2023-07-31T08:55:56;20.50;79.10
42683;DHT22;28293;50.930;3.464;2023-07-31T08:58:24;20.50;79.80
42683;DHT22;28293;50.930;3.464;2023-07-31T09:00:51;20.30;80.30
42683;DHT22;28293;50.930;3.464;2023-07-31T09:03:18;20.30;81.10
42683;DHT22;28293;50.930;3.464;2023-07-31T09:05:45;20.30;80.80
42683;DHT22;28293;50.930;3.464;2023-07-31T09:08:13;20.30;81.00
42683;DHT22;28293;50.930;3.464;2023-07-31T09:10:46;20.50;80.90
42683;DHT22;28293;50.930;3.464;2023-07-31T09:13:15;20.40;80.60
42683;DHT22;28293;50.930;3.464;2023-07-31T09:15:44;20.30;80.40
42683;DHT22;28293;50.930;3.464;2023-07-31T09:18:11;20.30;80.40
42683;DHT22;28293;50.930;3.464;2023-07-31T09:20:39;20.30;80.50
42683;DHT22;28293;50.930;3.464;2023-07-31T09:23:13;20.40;80.40
42683;DHT22;28293;50.930;3.464;2023-07-31T09:25:40;20.30;80.60
42683;DHT22;28293;50.930;3.464;2023-07-31T09:28:07;20.30;80.30
42683;DHT22;28293;50.930;3.464;2023-07-31T09:30:49;20.30;80.50
42683;DHT22;28293;50.930;3.464;2023-07-31T09:33:15;20.30;80.70
42683;DHT22;28293;50.930;3.464;2023-07-31T09:35:41;20.20;81.00
42683;DHT22;28293;50.930;3.464;2023-07-31T09:38:08;20.30;81.10
42683;DHT22;28293;50.930;3.464;2023-07-31T09:40:36;20.50;80.60
42683;DHT22;28293;50.930;3.464;2023-07-31T09:43:16;20.60;80.10
42683;DHT22;28293;50.930;3.464;2023-07-31T09:45:43;20.70;79.50
42683;DHT22;28293;50.930;3.464;2023-07-31T09:48:14;20.80;79.60
42683;DHT22;28293;50.930;3.464;2023-07-31T09:50:47;21.10;79.10
42683;DHT22;28293;50.930;3.464;2023-07-31T09:53:15;21.10;78.70
42683;DHT22;28293;50.930;3.464;2023-07-31T09:55:41;21.10;78.00
42683;DHT22;28293;50.930;3.464;2023-07-31T09:58:12;21.10;78.50
42683;DHT22;28293;50.930;3.464;2023-07-31T10:00:38;21.00;78.60
42683;DHT22;28293;50.930;3.464;2023-07-31T10:03:06;20.90;78.90
42683;DHT22;28293;50.930;3.464;2023-07-31T10:05:42;20.90;79.10
42683;DHT22;28293;50.930;3.464;2023-07-31T10:08:09;20.80;79.40
42683;DHT22;28293;50.930;3.464;2023-07-31T10:10:36;20.70;79.40
42683;DHT22;28293;50.930;3.464;2023-07-31T10:13:04;20.70;79.80
42683;DHT22;28293;50.930;3.464;2023-07-31T10:15:30;20.70;79.80
42683;DHT22;28293;50.930;3.464;2023-07-31T10:17:57;20.80;80.00
42683;DHT22;28293;50.930;3.464;2023-07-31T10:20:23;20.90;80.80
42683;DHT22;28293;50.930;3.464;2023-07-31T10:22:51;20.90;80.70
42683;DHT22;28293;50.930;3.464;2023-07-31T10:25:18;21.00;79.80
42683;DHT22;28293;50.930;3.464;2023-07-31T10:27:47;21.00;79.00
42683;DHT22;28293;50.930;3.464;2023-07-31T10:30:15;21.00;78.80
42683;DHT22;28293;50.930;3.464;2023-07-31T10:32:41;21.10;78.40
42683;DHT22;28293;50.930;3.464;2023-07-31T10:35:09;21.20;78.20
42683;DHT22;28293;50.930;3.464;2023-07-31T10:37:39;21.20;77.90
42683;DHT22;28293;50.930;3.464;2023-07-31T10:40:09;21.20;78.50
42683;DHT22;28293;50.930;3.464;2023-07-31T10:43:08;21.10;78.40
42683;DHT22;28293;50.930;3.464;2023-07-31T10:45:38;21.00;78.40
42683;DHT22;28293;50.930;3.464;2023-07-31T10:48:13;21.00;78.70
42683;DHT22;28293;50.930;3.464;2023-07-31T10:50:50;21.10;78.30
42683;DHT22;28293;50.930;3.464;2023-07-31T10:53:30;21.20;78.00
42683;DHT22;28293;50.930;3.464;2023-07-31T10:56:01;21.40;77.90
42683;DHT22;28293;50.930;3.464;2023-07-31T10:58:27;21.50;77.20
42683;DHT22;28293;50.930;3.464;2023-07-31T11:01:01;21.60;77.00
42683;DHT22;28293;50.930;3.464;2023-07-31T11:03:47;21.70;76.30
42683;DHT22;28293;50.930;3.464;2023-07-31T11:06:15;21.70;76.50
42683;DHT22;28293;50.930;3.464;2023-07-31T11:08:46;21.90;75.80
42683;DHT22;28293;50.930;3.464;2023-07-31T11:11:17;22.00;75.80
42683;DHT22;28293;50.930;3.464;2023-07-31T11:13:53;21.90;75.80
42683;DHT22;28293;50.930;3.464;2023-07-31T11:16:20;21.80;76.10
42683;DHT22;28293;50.930;3.464;2023-07-31T11:18:47;21.80;76.00
42683;DHT22;28293;50.930;3.464;2023-07-31T11:21:18;21.90;75.70
42683;DHT22;28293;50.930;3.464;2023-07-31T11:23:53;21.90;75.80
42683;DHT22;28293;50.930;3.464;2023-07-31T11:26:19;21.80;76.00
42683;DHT22;28293;50.930;3.464;2023-07-31T11:28:49;21.80;76.10
42683;DHT22;28293;50.930;3.464;2023-07-31T11:31:15;21.90;75.90
42683;DHT22;28293;50.930;3.464;2023-07-31T11:33:41;22.00;75.20
42683;DHT22;28293;50.930;3.464;2023-07-31T11:36:17;22.10;75.00
42683;DHT22;28293;50.930;3.464;2023-07-31T11:38:43;22.10;75.10
42683;DHT22;28293;50.930;3.464;2023-07-31T11:41:09;22.00;75.10
42683;DHT22;28293;50.930;3.464;2023-07-31T11:43:34;22.00;75.60
42683;DHT22;28293;50.930;3.464;2023-07-31T11:46:02;21.90;75.60
42683;DHT22;28293;50.930;3.464;2023-07-31T11:48:33;21.90;75.50
42683;DHT22;28293;50.930;3.464;2023-07-31T11:51:04;21.80;75.40
42683;DHT22;28293;50.930;3.464;2023-07-31T11:53:38;21.70;75.60
42683;DHT22;28293;50.930;3.464;2023-07-31T11:56:07;21.70;75.80
42683;DHT22;28293;50.930;3.464;2023-07-31T11:58:34;21.60;75.90
42683;DHT22;28293;50.930;3.464;2023-07-31T12:01:02;21.50;76.20
42683;DHT22;28293;50.930;3.464;2023-07-31T12:03:28;21.50;76.30
42683;DHT22;28293;50.930;3.464;2023-07-31T12:05:54;21.40;77.20
42683;DHT22;28293;50.930;3.464;2023-07-31T12:08:24;21.40;78.70
42683;DHT22;28293;50.930;3.464;2023-07-31T12:10:51;21.30;79.50
42683;DHT22;28293;50.930;3.464;2023-07-31T12:13:23;21.10;81.40
42683;DHT22;28293;50.930;3.464;2023-07-31T12:15:54;21.10;82.40
42683;DHT22;28293;50.930;3.464;2023-07-31T12:18:20;21.10;82.30
42683;DHT22;28293;50.930;3.464;2023-07-31T12:20:48;20.90;83.20
42683;DHT22;28293;50.930;3.464;2023-07-31T12:25:41;20.50;84.50
42683;DHT22;28293;50.930;3.464;2023-07-31T12:28:07;20.40;85.60
42683;DHT22;28293;50.930;3.464;2023-07-31T12:30:38;20.20;86.50
42683;DHT22;28293;50.930;3.464;2023-07-31T12:33:15;20.10;87.00
42683;DHT22;28293;50.930;3.464;2023-07-31T12:35:46;20.00;87.50
42683;DHT22;28293;50.930;3.464;2023-07-31T12:38:13;19.90;87.90
42683;DHT22;28293;50.930;3.464;2023-07-31T12:40:40;19.70;88.20
42683;DHT22;28293;50.930;3.464;2023-07-31T12:43:07;19.70;88.60
42683;DHT22;28293;50.930;3.464;2023-07-31T12:45:34;19.70;88.50
42683;DHT22;28293;50.930;3.464;2023-07-31T12:48:00;19.60;89.00
42683;DHT22;28293;50.930;3.464;2023-07-31T12:50:27;19.60;88.90
42683;DHT22;28293;50.930;3.464;2023-07-31T12:52:56;19.60;89.20
42683;DHT22;28293;50.930;3.464;2023-07-31T12:55:22;19.50;89.00
42683;DHT22;28293;50.930;3.464;2023-07-31T12:57:49;19.50;89.30
42683;DHT22;28293;50.930;3.464;2023-07-31T13:00:15;19.50;89.60
42683;DHT22;28293;50.930;3.464;2023-07-31T13:02:41;19.50;89.80
42683;DHT22;28293;50.930;3.464;2023-07-31T13:05:07;19.40;89.90
42683;DHT22;28293;50.930;3.464;2023-07-31T13:07:33;19.40;89.80
42683;DHT22;28293;50.930;3.464;2023-07-31T13:09:59;19.40;89.40
42683;DHT22;28293;50.930;3.464;2023-07-31T13:12:24;19.40;89.60
42683;DHT22;28293;50.930;3.464;2023-07-31T13:14:50;19.40;89.70
42683;DHT22;28293;50.930;3.464;2023-07-31T13:17:16;19.40;89.80
42683;DHT22;28293;50.930;3.464;2023-07-31T13:19:43;19.40;90.00
42683;DHT22;28293;50.930;3.464;2023-07-31T13:22:08;19.40;90.20
42683;DHT22;28293;50.930;3.464;2023-07-31T13:24:34;19.40;90.10
42683;DHT22;28293;50.930;3.464;2023-07-31T13:27:00;19.40;90.10
42683;DHT22;28293;50.930;3.464;2023-07-31T13:29:25;19.40;90.10
42683;DHT22;28293;50.930;3.464;2023-07-31T13:31:52;19.40;90.30
42683;DHT22;28293;50.930;3.464;2023-07-31T13:34:18;19.40;90.10
42683;DHT22;28293;50.930;3.464;2023-07-31T13:36:44;19.40;90.30
42683;DHT22;28293;50.930;3.464;2023-07-31T13:39:10;19.30;90.20
42683;DHT22;28293;50.930;3.464;2023-07-31T13:41:35;19.30;90.40
42683;DHT22;28293;50.930;3.464;2023-07-31T13:44:01;19.40;90.50
42683;DHT22;28293;50.930;3.464;2023-07-31T13:46:27;19.40;90.40
42683;DHT22;28293;50.930;3.464;2023-07-31T13:48:52;19.40;90.50
42683;DHT22;28293;50.930;3.464;2023-07-31T13:51:21;19.60;90.50
42683;DHT22;28293;50.930;3.464;2023-07-31T13:53:48;19.60;90.00
42683;DHT22;28293;50.930;3.464;2023-07-31T13:56:13;19.60;90.00
42683;DHT22;28293;50.930;3.464;2023-07-31T13:58:39;19.60;89.80
42683;DHT22;28293;50.930;3.464;2023-07-31T14:01:05;19.60;90.00
42683;DHT22;28293;50.930;3.464;2023-07-31T14:03:31;19.60;90.20
42683;DHT22;28293;50.930;3.464;2023-07-31T14:05:56;19.60;90.10
42683;DHT22;28293;50.930;3.464;2023-07-31T14:08:22;19.70;90.20
42683;DHT22;28293;50.930;3.464;2023-07-31T14:10:48;19.70;90.10
42683;DHT22;28293;50.930;3.464;2023-07-31T14:13:13;19.60;90.10
42683;DHT22;28293;50.930;3.464;2023-07-31T14:15:41;19.60;90.10
42683;DHT22;28293;50.930;3.464;2023-07-31T14:18:08;19.70;90.00
42683;DHT22;28293;50.930;3.464;2023-07-31T14:20:34;19.60;90.00
42683;DHT22;28293;50.930;3.464;2023-07-31T14:23:00;19.60;90.40
42683;DHT22;28293;50.930;3.464;2023-07-31T14:25:26;19.60;90.30
42683;DHT22;28293;50.930;3.464;2023-07-31T14:27:51;19.50;90.20
42683;DHT22;28293;50.930;3.464;2023-07-31T14:30:17;19.50;90.50
42683;DHT22;28293;50.930;3.464;2023-07-31T14:32:44;19.50;90.80
42683;DHT22;28293;50.930;3.464;2023-07-31T14:35:09;19.50;90.80
42683;DHT22;28293;50.930;3.464;2023-07-31T14:37:42;19.40;90.90
42683;DHT22;28293;50.930;3.464;2023-07-31T14:40:10;19.50;91.00
42683;DHT22;28293;50.930;3.464;2023-07-31T14:42:36;19.50;91.00
42683;DHT22;28293;50.930;3.464;2023-07-31T14:45:03;19.50;91.00
42683;DHT22;28293;50.930;3.464;2023-07-31T14:47:28;19.40;90.90
42683;DHT22;28293;50.930;3.464;2023-07-31T14:49:56;19.50;91.00
42683;DHT22;28293;50.930;3.464;2023-07-31T14:52:22;19.50;91.00
42683;DHT22;28293;50.930;3.464;2023-07-31T14:54:48;19.50;91.00
42683;DHT22;28293;50.930;3.464;2023-07-31T14:57:13;19.50;91.00
42683;DHT22;28293;50.930;3.464;2023-07-31T14:59:39;19.50;91.00
42683;DHT22;28293;50.930;3.464;2023-07-31T15:02:05;19.50;90.90
42683;DHT22;28293;50.930;3.464;2023-07-31T15:04:31;19.40;91.10
42683;DHT22;28293;50.930;3.464;2023-07-31T15:06:57;19.40;91.00
42683;DHT22;28293;50.930;3.464;2023-07-31T15:09:22;19.40;91.20
42683;DHT22;28293;50.930;3.464;2023-07-31T15:11:48;19.40;91.10
42683;DHT22;28293;50.930;3.464;2023-07-31T15:14:13;19.30;91.30
42683;DHT22;28293;50.930;3.464;2023-07-31T15:16:39;19.30;91.20
42683;DHT22;28293;50.930;3.464;2023-07-31T15:19:05;19.30;91.30
42683;DHT22;28293;50.930;3.464;2023-07-31T15:21:30;19.30;91.30
42683;DHT22;28293;50.930;3.464;2023-07-31T15:23:56;19.30;91.20
42683;DHT22;28293;50.930;3.464;2023-07-31T15:26:22;19.30;91.40
42683;DHT22;28293;50.930;3.464;2023-07-31T15:28:50;19.20;91.40
42683;DHT22;28293;50.930;3.464;2023-07-31T15:31:20;19.20;91.60
42683;DHT22;28293;50.930;3.464;2023-07-31T15:33:47;19.20;91.60